Time;durP1;ratioP1;P1;durP2;ratioP2;P2;SDS_P1;SDS_P2;PMS_P1;PMS_P2;Temp;Humidity;BMP_temperature;BMP_pressure;BME280_temperature;BME280_humidity;BME280_pressure;Samples;Min_cycle;Max_cycle;Signal;HPM_P1;HPM_P2
2023/04/01 00:01:14;;;;;;;7.38;5.65;;;8.70;99.90;;;;;;5088927;27;20110;-73
2023/04/01 00:03:42;;;;;;;7.63;5.70;;;10.00;99.90;;;;;;5104390;27;20130;-73
2023/04/01 00:06:09;;;;;;;7.30;5.70;;;9.90;99.90;;;;;;5101410;27;20142;-72
2023/04/01 00:08:36;;;;;;;7.78;6.28;;;10.00;99.90;;;;;;5078864;27;20047;-73
2023/04/01 00:11:05;;;;;;;8.30;6.30;;;10.00;99.90;;;;;;5118984;27;20075;-73
2023/04/01 00:13:30;;;;;;;8.77;6.32;;;9.90;99.90;;;;;;5135056;27;20135;-72
2023/04/01 00:16:01;;;;;;;7.80;6.22;;;10.00;99.90;;;;;;5119548;27;20130;-72
2023/04/01 00:18:33;;;;;;;7.63;5.88;;;9.90;99.90;;;;;;5114905;27;20062;-72
2023/04/01 00:21:00;;;;;;;8.70;6.82;;;9.90;99.90;;;;;;5101714;27;20059;-73
2023/04/01 00:23:26;;;;;;;9.38;6.60;;;10.00;99.90;;;;;;5115149;27;20066;-72
2023/04/01 00:25:52;;;;;;;8.50;6.72;;;9.50;99.90;;;;;;5118689;27;20123;-72
2023/04/01 00:28:19;;;;;;;7.70;6.03;;;10.00;99.90;;;;;;5081717;27;20101;-73
2023/04/01 00:30:46;;;;;;;7.32;5.95;;;10.00;99.90;;;;;;5117227;27;20104;-74
2023/04/01 00:33:17;;;;;;;6.97;5.65;;;10.00;99.90;;;;;;5119028;27;20211;-74
2023/04/01 00:35:43;;;;;;;7.28;5.55;;;10.00;99.90;;;;;;5102015;27;20532;-72
2023/04/01 00:38:11;;;;;;;8.18;5.93;;;10.00;99.90;;;;;;5086128;27;20049;-74
2023/04/01 00:40:42;;;;;;;7.18;5.40;;;10.00;99.90;;;;;;5101878;27;20047;-73
2023/04/01 00:43:26;;;;;;;7.60;5.65;;;10.00;99.90;;;;;;5083479;27;20049;-73
2023/04/01 00:45:52;;;;;;;7.47;5.53;;;10.00;99.90;;;;;;5084161;27;20518;-73
2023/04/01 00:48:22;;;;;;;7.47;5.78;;;10.00;99.90;;;;;;5101476;27;20059;-73
2023/04/01 00:51:11;;;;;;;7.53;5.65;;;10.00;99.90;;;;;;5101870;27;20043;-72
2023/04/01 00:53:43;;;;;;;8.43;6.88;;;10.00;99.90;;;;;;5130986;27;20035;-72
2023/04/01 00:56:15;;;;;;;8.00;6.10;;;9.90;99.90;;;;;;5085187;27;20047;-73
2023/04/01 00:58:51;;;;;;;8.32;6.18;;;9.90;99.90;;;;;;5097717;27;20046;-72
2023/04/01 01:01:20;;;;;;;8.20;5.90;;;10.00;99.90;;;;;;5101621;27;20093;-72
2023/04/01 01:03:47;;;;;;;9.45;6.60;;;9.90;99.90;;;;;;5069128;27;20499;-73
2023/04/01 01:06:26;;;;;;;8.85;6.78;;;10.00;99.90;;;;;;5100961;27;20058;-73
2023/04/01 01:09:33;;;;;;;10.88;6.80;;;9.90;99.90;;;;;;5119330;27;20039;-73
2023/04/01 01:12:17;;;;;;;8.13;5.93;;;9.90;99.90;;;;;;5111103;27;20065;-72
2023/04/01 01:15:11;;;;;;;8.20;6.38;;;10.00;99.90;;;;;;5100157;27;20036;-72
2023/04/01 01:17:43;;;;;;;8.85;6.85;;;9.90;99.90;;;;;;5081972;27;20560;-72
2023/04/01 01:20:47;;;;;;;9.52;6.80;;;9.90;99.90;;;;;;5133344;27;20104;-72
2023/04/01 01:23:44;;;;;;;8.25;6.40;;;10.00;99.90;;;;;;5095378;27;20044;-73
2023/04/01 01:26:29;;;;;;;8.60;6.70;;;9.90;99.90;;;;;;5030860;27;20500;-72
2023/04/01 01:29:42;;;;;;;8.90;7.03;;;10.30;99.90;;;;;;5099817;27;20046;-73
2023/04/01 01:32:30;;;;;;;9.43;7.40;;;9.90;99.90;;;;;;5060129;27;20065;-72
2023/04/01 01:35:14;;;;;;;9.48;7.13;;;9.90;99.90;;;;;;5133070;27;20196;-73
2023/04/01 01:37:43;;;;;;;10.75;7.00;;;9.90;99.90;;;;;;5101887;27;20043;-72
2023/04/01 01:40:12;;;;;;;9.20;6.80;;;9.90;99.90;;;;;;5100141;27;20051;-72
2023/04/01 01:42:48;;;;;;;9.70;7.75;;;9.90;99.90;;;;;;5097422;27;20648;-73
2023/04/01 01:45:18;;;;;;;9.65;7.40;;;9.90;99.90;;;;;;5100060;27;20054;-72
2023/04/01 01:47:49;;;;;;;10.10;7.97;;;9.90;99.90;;;;;;5083951;27;20058;-73
2023/04/01 01:50:16;;;;;;;9.55;7.00;;;9.90;99.90;;;;;;5115995;27;20051;-74
2023/04/01 01:52:42;;;;;;;8.82;6.38;;;9.90;99.90;;;;;;5099344;27;20439;-74
2023/04/01 01:55:29;;;;;;;9.57;7.20;;;9.90;99.90;;;;;;5097555;27;20039;-72
2023/04/01 01:58:06;;;;;;;8.18;6.07;;;9.90;99.90;;;;;;5099729;27;20050;-72
2023/04/01 02:00:33;;;;;;;9.10;6.53;;;9.90;99.90;;;;;;5101549;27;20532;-74
2023/04/01 02:03:00;;;;;;;9.68;6.95;;;9.90;99.90;;;;;;5080292;28;20039;-73
2023/04/01 02:05:30;;;;;;;9.57;7.57;;;9.80;99.90;;;;;;5134299;27;20132;-73
2023/04/01 02:08:02;;;;;;;9.75;7.50;;;9.80;99.90;;;;;;5100608;28;20093;-73
2023/04/01 02:10:37;;;;;;;9.25;6.78;;;9.80;99.90;;;;;;5102636;28;20150;-73
2023/04/01 02:13:09;;;;;;;8.70;6.68;;;9.80;99.90;;;;;;5087431;27;20075;-73
2023/04/01 02:15:40;;;;;;;9.25;6.68;;;9.90;99.90;;;;;;5114496;27;20050;-72
2023/04/01 02:18:07;;;;;;;8.27;6.60;;;9.80;99.90;;;;;;5098659;27;20070;-73
2023/04/01 02:20:36;;;;;;;9.45;6.80;;;9.80;99.90;;;;;;5085036;28;20035;-74
2023/04/01 02:23:03;;;;;;;9.52;7.10;;;9.80;99.90;;;;;;5084862;28;20043;-73
2023/04/01 02:25:35;;;;;;;9.13;6.70;;;9.80;99.90;;;;;;5115986;27;20042;-74
2023/04/01 02:28:06;;;;;;;9.70;6.53;;;9.80;99.90;;;;;;5078546;27;20340;-73
2023/04/01 02:30:35;;;;;;;10.38;7.55;;;9.80;99.90;;;;;;5100493;27;20061;-72
2023/04/01 02:33:02;;;;;;;8.98;6.97;;;9.80;99.90;;;;;;5132824;27;20084;-75
2023/04/01 02:35:30;;;;;;;9.68;7.43;;;9.80;99.90;;;;;;5134217;27;20438;-74
2023/04/01 02:37:57;;;;;;;11.88;7.00;;;9.80;99.90;;;;;;5099674;27;20088;-74
2023/04/01 02:40:24;;;;;;;11.35;7.80;;;9.80;99.90;;;;;;5112380;27;20043;-74
2023/04/01 02:42:50;;;;;;;11.82;8.40;;;9.80;99.90;;;;;;5116653;27;20046;-74
2023/04/01 02:45:16;;;;;;;9.23;7.28;;;9.80;99.90;;;;;;5134623;27;20044;-74
2023/04/01 02:47:43;;;;;;;13.57;8.23;;;9.80;99.90;;;;;;5084045;27;20051;-72
2023/04/01 02:50:09;;;;;;;11.38;7.93;;;9.80;99.90;;;;;;5098339;28;20413;-72
2023/04/01 02:52:35;;;;;;;10.75;8.15;;;9.80;99.90;;;;;;5096211;27;21738;-73
2023/04/01 02:55:02;;;;;;;11.18;8.25;;;9.80;99.90;;;;;;5082306;27;20036;-73
2023/04/01 02:57:27;;;;;;;11.95;8.73;;;9.80;99.90;;;;;;5082350;27;20511;-73
2023/04/01 02:59:53;;;;;;;12.57;8.43;;;9.80;99.90;;;;;;5082989;27;20054;-73
2023/04/01 03:02:19;;;;;;;12.18;8.93;;;9.80;99.90;;;;;;5099100;27;20085;-73
2023/04/01 03:04:45;;;;;;;12.40;8.57;;;9.80;99.90;;;;;;5114997;27;20043;-74
2023/04/01 03:07:21;;;;;;;11.35;8.60;;;9.80;99.90;;;;;;5119390;27;20077;-75
2023/04/01 03:09:47;;;;;;;11.85;8.55;;;9.80;99.90;;;;;;5121805;27;20057;-72
2023/04/01 03:12:12;;;;;;;12.32;9.27;;;9.80;99.90;;;;;;5084399;27;20051;-73
2023/04/01 03:14:41;;;;;;;13.98;9.10;;;9.80;99.90;;;;;;5084602;27;20066;-73
2023/04/01 03:17:06;;;;;;;13.80;9.15;;;9.80;99.90;;;;;;5085444;27;20112;-72
2023/04/01 03:19:33;;;;;;;12.93;9.43;;;9.80;99.90;;;;;;5082960;27;20466;-73
2023/04/01 03:21:59;;;;;;;14.30;9.48;;;9.80;99.90;;;;;;5119432;27;20058;-75
2023/04/01 03:24:25;;;;;;;12.45;8.88;;;9.80;99.90;;;;;;5121107;27;20039;-72
2023/04/01 03:26:51;;;;;;;12.38;9.23;;;9.80;99.90;;;;;;5099953;27;20053;-73
2023/04/01 03:29:16;;;;;;;12.15;9.15;;;9.80;99.90;;;;;;5118028;27;20046;-74
2023/04/01 03:31:42;;;;;;;12.45;9.20;;;9.80;99.90;;;;;;5085615;27;20541;-73
2023/04/01 03:34:09;;;;;;;14.02;9.82;;;9.80;99.90;;;;;;5119478;27;20043;-73
2023/04/01 03:36:35;;;;;;;13.32;9.10;;;9.80;99.90;;;;;;5099931;27;20056;-73
2023/04/01 03:39:00;;;;;;;13.65;8.98;;;9.80;99.90;;;;;;5098789;27;20066;-72
2023/04/01 03:41:35;;;;;;;12.13;8.35;;;9.80;99.90;;;;;;5087476;27;20051;-72
2023/04/01 03:44:02;;;;;;;11.85;8.68;;;9.80;99.90;;;;;;5136726;27;20188;-73
2023/04/01 03:46:35;;;;;;;12.32;9.52;;;9.80;99.90;;;;;;5070405;27;20077;-72
2023/04/01 03:49:01;;;;;;;11.45;9.00;;;9.80;99.90;;;;;;5083688;27;20046;-74
2023/04/01 03:51:27;;;;;;;13.23;8.70;;;9.80;99.90;;;;;;5100590;27;20644;-73
2023/04/01 03:53:57;;;;;;;14.63;8.95;;;9.80;99.90;;;;;;5118632;27;20039;-73
2023/04/01 03:56:23;;;;;;;13.20;9.50;;;9.80;99.90;;;;;;5087072;27;20059;-73
2023/04/01 03:58:49;;;;;;;11.27;8.68;;;9.80;99.90;;;;;;5069059;27;20043;-73
2023/04/01 04:01:24;;;;;;;11.88;8.48;;;9.80;99.90;;;;;;5132858;27;20163;-72
2023/04/01 04:03:50;;;;;;;10.98;8.77;;;9.80;99.90;;;;;;5103210;27;20047;-73
2023/04/01 04:06:19;;;;;;;12.23;8.32;;;9.80;99.90;;;;;;5106068;27;20053;-73
2023/04/01 04:08:46;;;;;;;14.63;8.82;;;9.80;99.90;;;;;;5086764;27;20390;-72
2023/04/01 04:11:12;;;;;;;12.05;8.95;;;9.80;99.90;;;;;;5136692;27;20049;-73
2023/04/01 04:13:37;;;;;;;12.73;9.02;;;9.80;99.90;;;;;;5114697;27;21788;-74
2023/04/01 04:16:05;;;;;;;11.80;8.50;;;9.80;99.90;;;;;;5069337;27;20090;-73
2023/04/01 04:18:32;;;;;;;14.07;9.13;;;9.80;99.90;;;;;;5084381;27;20058;-72
2023/04/01 04:21:00;;;;;;;11.80;8.75;;;9.80;99.90;;;;;;5103086;27;20129;-72
2023/04/01 04:23:26;;;;;;;13.43;9.43;;;9.80;99.90;;;;;;5117913;27;20047;-73
2023/04/01 04:26:03;;;;;;;15.10;9.35;;;9.80;99.90;;;;;;5105825;27;20057;-72
2023/04/01 04:28:28;;;;;;;14.07;8.88;;;9.80;99.90;;;;;;5099972;27;20421;-72
2023/04/01 04:30:54;;;;;;;11.52;8.35;;;9.80;99.90;;;;;;5102057;27;20054;-73
2023/04/01 04:33:22;;;;;;;12.95;8.60;;;9.80;99.90;;;;;;5086610;27;20040;-72
2023/04/01 04:35:48;;;;;;;9.80;6.60;;;9.80;99.90;;;;;;5101700;27;20054;-73
2023/04/01 04:38:14;;;;;;;11.35;6.78;;;9.80;99.90;;;;;;5101036;27;20039;-73
2023/04/01 04:40:41;;;;;;;11.05;7.35;;;9.80;99.90;;;;;;5104223;27;20108;-73
2023/04/01 04:43:13;;;;;;;11.48;7.53;;;9.70;99.90;;;;;;5100551;27;20047;-73
2023/04/01 04:45:39;;;;;;;11.10;7.38;;;9.80;99.90;;;;;;5114090;27;20139;-73
2023/04/01 04:48:07;;;;;;;14.40;8.70;;;8.80;99.90;;;;;;5116977;27;20138;-74
2023/04/01 04:50:32;;;;;;;16.17;10.15;;;9.60;99.90;;;;;;5100354;27;20126;-73
2023/04/01 04:52:58;;;;;;;14.00;9.38;;;9.80;99.90;;;;;;5100872;27;20042;-73
2023/04/01 04:55:24;;;;;;;15.75;10.27;;;9.70;99.90;;;;;;5085198;27;20035;-72
2023/04/01 04:57:50;;;;;;;17.27;11.00;;;9.70;99.90;;;;;;5102594;27;20043;-73
2023/04/01 05:00:16;;;;;;;19.40;10.95;;;9.80;99.90;;;;;;5096589;27;20467;-74
2023/04/01 05:02:42;;;;;;;22.85;12.57;;;10.30;99.90;;;;;;5108982;27;20051;-74
2023/04/01 05:05:08;;;;;;;20.63;11.52;;;9.80;99.90;;;;;;5083651;27;20073;-73
2023/04/01 05:07:34;;;;;;;18.80;11.30;;;9.80;99.90;;;;;;5100796;27;20031;-73
2023/04/01 05:10:00;;;;;;;22.15;11.82;;;9.70;99.90;;;;;;5099929;27;20043;-73
2023/04/01 05:12:25;;;;;;;18.02;11.48;;;9.80;99.90;;;;;;5118589;27;20093;-74
2023/04/01 05:14:52;;;;;;;18.45;10.95;;;9.70;99.90;;;;;;5121260;27;20570;-73
2023/04/01 05:17:18;;;;;;;20.67;11.13;;;9.70;99.90;;;;;;5102277;27;20386;-73
2023/04/01 05:19:44;;;;;;;24.48;12.15;;;9.80;99.90;;;;;;5087561;27;20042;-73
2023/04/01 05:22:12;;;;;;;18.23;11.55;;;9.80;99.90;;;;;;5103373;27;20043;-74
2023/04/01 05:24:38;;;;;;;16.75;10.93;;;9.70;99.90;;;;;;5119241;27;20538;-73
2023/04/01 05:27:04;;;;;;;16.35;10.55;;;9.70;99.90;;;;;;5065116;27;20427;-71
2023/04/01 05:29:31;;;;;;;22.25;10.18;;;9.10;99.90;;;;;;5084794;27;20043;-72
2023/04/01 05:31:57;;;;;;;17.63;11.05;;;9.20;99.90;;;;;;5102331;27;20471;-72
2023/04/01 05:34:28;;;;;;;17.95;11.10;;;9.70;99.90;;;;;;5101248;27;20070;-72
2023/04/01 05:36:54;;;;;;;16.17;10.77;;;9.70;99.90;;;;;;5084164;27;20075;-71
2023/04/01 05:39:20;;;;;;;18.52;12.30;;;9.80;99.90;;;;;;5083873;27;20047;-73
2023/04/01 05:41:46;;;;;;;23.77;13.07;;;9.80;99.90;;;;;;5084402;27;20058;-71
2023/04/01 05:44:15;;;;;;;20.95;13.48;;;10.30;99.90;;;;;;5117863;27;20066;-71
2023/04/01 05:46:41;;;;;;;24.13;13.60;;;8.70;99.90;;;;;;5115713;27;20063;-72
2023/04/01 05:49:07;;;;;;;26.45;14.73;;;9.80;99.90;;;;;;5100664;27;20051;-73
2023/04/01 05:51:33;;;;;;;24.02;13.38;;;9.70;99.90;;;;;;5086328;27;20062;-73
2023/04/01 05:54:00;;;;;;;22.80;12.77;;;9.80;99.90;;;;;;5118167;27;20046;-72
2023/04/01 05:56:25;;;;;;;24.85;13.82;;;9.70;99.90;;;;;;5136243;27;20127;-73
2023/04/01 05:58:53;;;;;;;24.40;13.68;;;9.80;99.90;;;;;;5115800;27;20035;-72
2023/04/01 06:01:20;;;;;;;22.35;13.93;;;9.70;99.90;;;;;;5084674;28;20039;-72
2023/04/01 06:03:46;;;;;;;24.92;13.60;;;9.70;99.90;;;;;;5098291;28;20066;-72
2023/04/01 06:06:22;;;;;;;22.70;12.73;;;9.70;99.90;;;;;;5082587;27;20388;-73
2023/04/01 06:08:49;;;;;;;17.95;12.07;;;9.70;99.90;;;;;;5081587;27;20127;-76
2023/04/01 06:11:43;;;;;;;21.92;13.30;;;9.70;99.90;;;;;;5097638;27;20070;-75
2023/04/01 06:14:32;;;;;;;19.90;11.98;;;9.70;99.90;;;;;;5101414;27;20108;-76
2023/04/01 06:17:27;;;;;;;22.88;13.82;;;9.70;99.90;;;;;;5082988;27;20062;-78
2023/04/01 06:20:02;;;;;;;24.60;13.88;;;9.70;99.90;;;;;;5054681;27;20108;-76
2023/04/01 06:22:38;;;;;;;26.05;14.32;;;9.70;99.90;;;;;;5100090;27;20047;-75
2023/04/01 06:25:38;;;;;;;29.05;14.73;;;9.70;99.90;;;;;;5115371;27;20146;-75
2023/04/01 06:28:35;;;;;;;28.48;14.60;;;9.70;99.90;;;;;;5090902;27;20430;-76
2023/04/01 06:31:09;;;;;;;28.55;14.38;;;9.70;99.90;;;;;;5112523;27;20134;-74
2023/04/01 06:33:55;;;;;;;29.35;15.07;;;9.70;99.90;;;;;;5116327;27;20043;-75
2023/04/01 06:36:56;;;;;;;29.58;14.90;;;9.70;99.90;;;;;;5082290;27;20481;-76
2023/04/01 06:40:03;;;;;;;27.45;14.02;;;9.70;99.90;;;;;;5063575;27;20122;-74
2023/04/01 06:42:42;;;;;;;23.67;13.90;;;9.70;99.90;;;;;;5102037;27;20042;-76
2023/04/01 06:45:24;;;;;;;27.65;14.82;;;9.70;99.90;;;;;;5104395;27;20474;-76
2023/04/01 06:48:15;;;;;;;23.77;13.10;;;9.70;99.90;;;;;;5087149;27;20043;-73
2023/04/01 06:51:29;;;;;;;25.90;14.40;;;9.70;99.90;;;;;;5085333;27;20035;-73
2023/04/01 06:54:18;;;;;;;25.50;13.77;;;9.80;99.90;;;;;;5015285;27;20058;-75
2023/04/01 06:57:00;;;;;;;30.20;14.55;;;9.70;99.90;;;;;;5121944;27;20134;-75
2023/04/01 06:59:29;;;;;;;28.10;13.77;;;9.80;99.90;;;;;;5090807;27;20046;-74
2023/04/01 07:02:30;;;;;;;25.20;13.02;;;9.80;99.90;;;;;;5119375;27;20473;-74
2023/04/01 07:05:05;;;;;;;25.00;12.32;;;9.80;99.90;;;;;;5136822;27;20054;-73
2023/04/01 07:08:10;;;;;;;20.48;11.35;;;9.80;99.90;;;;;;5084796;27;20401;-77
2023/04/01 07:14:35;;;;;;;25.15;12.48;;;9.90;99.90;;;;;;5126413;27;20084;-77
2023/04/01 07:17:15;;;;;;;24.38;13.20;;;9.90;99.90;;;;;;5102526;27;20059;-76
2023/04/01 07:20:00;;;;;;;27.75;13.85;;;10.00;99.90;;;;;;5084792;27;20575;-74
2023/04/01 07:22:38;;;;;;;27.95;13.30;;;10.00;99.90;;;;;;5102190;27;20043;-75
2023/04/01 07:25:39;;;;;;;23.13;12.45;;;10.00;99.90;;;;;;5103917;27;20476;-74
2023/04/01 07:28:14;;;;;;;23.80;12.30;;;10.00;99.90;;;;;;5056835;27;20055;-71
2023/04/01 07:31:19;;;;;;;24.27;12.18;;;10.00;99.90;;;;;;5103419;27;20056;-71
2023/04/01 07:34:07;;;;;;;27.85;12.20;;;10.00;99.90;;;;;;5046756;27;20047;-72
2023/04/01 07:36:52;;;;;;;24.52;12.07;;;10.00;99.90;;;;;;5104302;27;20079;-72
2023/04/01 07:39:39;;;;;;;27.83;13.25;;;10.00;99.90;;;;;;5061171;27;20059;-70
2023/04/01 07:42:14;;;;;;;35.83;14.50;;;10.00;99.90;;;;;;5106502;27;20131;-71
2023/04/01 07:45:13;;;;;;;32.42;15.05;;;10.10;99.90;;;;;;5120202;27;20070;-71
2023/04/01 07:48:04;;;;;;;34.05;15.48;;;10.10;99.90;;;;;;5141263;27;20333;-72
2023/04/01 07:50:37;;;;;;;35.53;14.63;;;10.10;99.90;;;;;;5102892;27;20051;-71
2023/04/01 07:53:18;;;;;;;31.88;15.20;;;10.10;99.90;;;;;;5116446;27;20052;-71
2023/04/01 07:56:08;;;;;;;38.13;17.10;;;10.10;99.90;;;;;;5119103;27;20039;-70
2023/04/01 07:59:04;;;;;;;35.78;16.25;;;10.20;99.90;;;;;;5100442;27;20050;-71
2023/04/01 08:01:45;;;;;;;31.38;15.00;;;10.20;99.90;;;;;;5136562;27;20159;-71
2023/04/01 08:04:27;;;;;;;28.33;13.65;;;10.20;99.90;;;;;;5097496;27;20099;-72
2023/04/01 08:07:09;;;;;;;22.58;12.43;;;10.10;99.90;;;;;;5134326;27;20044;-71
2023/04/01 08:09:50;;;;;;;23.58;12.15;;;10.10;99.90;;;;;;5100701;27;20051;-73
2023/04/01 08:12:52;;;;;;;24.55;11.05;;;10.10;99.90;;;;;;5102935;27;20043;-72
2023/04/01 08:15:23;;;;;;;25.05;11.88;;;10.10;99.90;;;;;;5102445;27;20435;-72
2023/04/01 08:18:09;;;;;;;20.33;10.93;;;10.10;99.90;;;;;;5080337;27;20054;-74
2023/04/01 08:21:00;;;;;;;22.08;11.57;;;10.20;99.90;;;;;;5098901;27;20127;-76
2023/04/01 08:23:44;;;;;;;27.40;11.98;;;10.20;99.90;;;;;;5082078;27;20040;-71
2023/04/01 08:26:19;;;;;;;25.58;12.85;;;10.20;99.90;;;;;;5130735;27;20047;-72
2023/04/01 08:28:57;;;;;;;24.88;11.35;;;10.30;99.90;;;;;;5103740;27;20050;-74
2023/04/01 08:31:48;;;;;;;21.63;11.50;;;10.30;99.90;;;;;;5102834;27;20047;-77
2023/04/01 08:34:24;;;;;;;21.80;11.25;;;10.40;99.90;;;;;;5084030;27;20718;-75
2023/04/01 08:37:04;;;;;;;21.05;11.98;;;10.30;99.90;;;;;;5135294;27;20184;-75
2023/04/01 08:39:33;;;;;;;20.52;10.65;;;10.40;99.90;;;;;;5101500;27;20055;-75
2023/04/01 08:42:33;;;;;;;21.48;10.60;;;10.40;99.90;;;;;;5100440;27;20039;-75
2023/04/01 08:45:32;;;;;;;17.77;9.60;;;10.50;99.90;;;;;;5083238;27;20624;-74
2023/04/01 08:48:08;;;;;;;14.93;7.45;;;10.50;99.90;;;;;;5083924;27;20061;-76
2023/04/01 08:51:04;;;;;;;15.20;7.50;;;10.60;99.90;;;;;;5099385;27;20100;-75
2023/04/01 08:53:59;;;;;;;13.50;6.13;;;10.60;99.90;;;;;;5117599;27;20050;-75
2023/04/01 08:56:40;;;;;;;9.00;4.68;;;10.70;99.90;;;;;;5116252;27;20136;-74
2023/04/01 08:59:30;;;;;;;11.32;4.25;;;10.70;99.90;;;;;;5100122;27;20039;-74
2023/04/01 09:01:56;;;;;;;8.27;3.70;;;10.70;99.90;;;;;;5117143;27;20055;-74
2023/04/01 09:04:24;;;;;;;8.82;3.55;;;10.80;99.90;;;;;;5114022;27;20041;-75
2023/04/01 09:07:15;;;;;;;11.32;3.50;;;10.80;99.90;;;;;;5099382;27;20043;-74
2023/04/01 09:10:05;;;;;;;8.55;3.65;;;10.90;99.90;;;;;;5085656;27;20062;-73
2023/04/01 09:12:50;;;;;;;13.25;3.55;;;11.00;99.90;;;;;;5102496;27;20207;-75
2023/04/01 09:15:37;;;;;;;11.25;3.78;;;11.20;99.90;;;;;;5101915;27;20126;-74
2023/04/01 09:18:09;;;;;;;11.15;4.68;;;11.30;99.90;;;;;;5102437;27;20435;-73
2023/04/01 09:20:50;;;;;;;10.02;3.90;;;11.40;99.90;;;;;;5098860;27;20057;-74
2023/04/01 09:23:34;;;;;;;10.10;3.90;;;11.50;99.90;;;;;;5137597;27;20050;-73
2023/04/01 09:26:37;;;;;;;8.82;3.05;;;11.70;99.90;;;;;;5103044;27;20070;-73
2023/04/01 09:30:07;;;;;;;10.48;5.05;;;11.80;99.90;;;;;;5137398;27;20054;-75
2023/04/01 09:32:39;;;;;;;9.38;3.42;;;11.90;99.90;;;;;;5022650;27;20123;-72
2023/04/01 09:35:40;;;;;;;7.32;3.40;;;11.80;99.90;;;;;;5105887;27;20054;-73
2023/04/01 09:38:26;;;;;;;7.87;3.57;;;11.80;99.90;;;;;;5087149;27;20088;-73
2023/04/01 09:41:26;;;;;;;7.18;2.88;;;11.80;99.90;;;;;;5088129;27;20799;-73
2023/04/01 09:44:16;;;;;;;7.93;3.10;;;11.70;99.90;;;;;;5101245;27;20066;-73
2023/04/01 09:47:09;;;;;;;8.93;3.28;;;11.60;99.90;;;;;;5118036;27;20408;-73
2023/04/01 09:49:45;;;;;;;7.28;3.80;;;11.60;99.90;;;;;;5117619;27;20054;-72
2023/04/01 09:52:17;;;;;;;9.85;2.90;;;11.60;99.90;;;;;;5100575;27;20129;-72
2023/04/01 09:55:03;;;;;;;12.75;4.10;;;11.70;99.90;;;;;;5098699;27;20058;-73
2023/04/01 09:57:50;;;;;;;5.78;3.00;;;11.70;99.90;;;;;;5076973;27;20043;-73
2023/04/01 10:00:35;;;;;;;7.18;3.22;;;11.70;99.90;;;;;;5097349;27;20508;-73
2023/04/01 10:03:13;;;;;;;6.28;2.88;;;11.70;99.90;;;;;;5098333;27;20043;-74
2023/04/01 10:06:04;;;;;;;7.80;2.60;;;11.70;99.90;;;;;;5129821;27;20090;-74
2023/04/01 10:09:08;;;;;;;6.00;2.60;;;11.80;99.90;;;;;;5130677;27;20074;-73
2023/04/01 10:11:46;;;;;;;6.85;2.45;;;12.00;99.90;;;;;;5096803;27;20031;-72
2023/04/01 10:14:48;;;;;;;6.38;2.50;;;12.10;99.90;;;;;;5099411;27;20114;-73
2023/04/01 10:17:40;;;;;;;6.10;2.85;;;12.10;99.90;;;;;;5116716;27;20793;-74
2023/04/01 10:20:31;;;;;;;6.38;2.88;;;12.20;99.90;;;;;;5115087;27;20074;-73
2023/04/01 10:23:54;;;;;;;8.45;2.67;;;12.10;99.90;;;;;;5083966;27;20046;-73
2023/04/01 10:26:54;;;;;;;8.02;2.55;;;12.10;99.90;;;;;;4984965;28;20045;-74
2023/04/01 10:29:49;;;;;;;7.55;2.83;;;12.00;99.90;;;;;;5001986;28;20049;-75
2023/04/01 10:32:34;;;;;;;6.32;2.80;;;12.00;99.90;;;;;;5083206;27;20091;-76
2023/04/01 10:35:24;;;;;;;6.68;2.83;;;12.00;99.90;;;;;;5119941;27;20084;-76
2023/04/01 10:38:08;;;;;;;5.47;2.65;;;12.10;99.90;;;;;;5102614;27;20053;-75
2023/04/01 10:40:57;;;;;;;5.25;2.40;;;12.20;99.90;;;;;;5099427;27;20140;-74
2023/04/01 10:44:01;;;;;;;5.93;2.60;;;12.30;99.90;;;;;;5132988;27;20039;-76
2023/04/01 10:47:17;;;;;;;9.10;2.90;;;12.30;99.90;;;;;;5105224;27;20377;-75
2023/04/01 10:50:01;;;;;;;8.52;3.30;;;12.30;99.90;;;;;;5114898;27;20761;-77
2023/04/01 10:52:48;;;;;;;5.53;2.50;;;12.40;99.90;;;;;;5100283;27;20523;-76
2023/04/01 10:55:36;;;;;;;8.48;3.20;;;12.50;99.90;;;;;;5101854;27;20046;-74
2023/04/01 10:58:40;;;;;;;6.60;2.60;;;12.50;99.90;;;;;;5100757;27;20401;-75
2023/04/01 11:01:42;;;;;;;7.15;2.50;;;12.50;99.90;;;;;;5059778;28;20422;-74
2023/04/01 11:04:29;;;;;;;4.60;2.35;;;12.50;99.90;;;;;;5059464;28;20421;-75
2023/04/01 11:07:26;;;;;;;6.47;2.55;;;12.50;99.90;;;;;;5060090;28;20078;-76
2023/04/01 11:10:33;;;;;;;5.10;2.30;;;12.60;99.90;;;;;;5057674;28;20052;-74
2023/04/01 11:13:38;;;;;;;4.80;1.63;;;12.70;99.90;;;;;;5008480;28;20055;-74
2023/04/01 11:16:42;;;;;;;4.60;1.75;;;12.90;99.90;;;;;;5057159;28;20060;-74
2023/04/01 11:19:25;;;;;;;4.60;1.50;;;13.00;99.90;;;;;;5041613;28;20068;-75
2023/04/01 11:22:28;;;;;;;4.18;1.63;;;13.20;99.90;;;;;;5086654;27;20164;-79
2023/04/01 11:25:18;;;;;;;4.18;2.10;;;13.30;99.90;;;;;;5089102;28;20048;-78
2023/04/01 11:28:13;;;;;;;5.18;2.00;;;13.20;99.90;;;;;;5056331;28;20047;-76
2023/04/01 11:31:00;;;;;;;5.22;2.28;;;12.90;99.90;;;;;;4996801;28;20055;-76
2023/04/01 11:33:33;;;;;;;7.32;2.03;;;12.70;99.90;;;;;;5132736;27;20039;-74
2023/04/01 11:36:07;;;;;;;3.85;1.80;;;12.60;99.90;;;;;;5084127;27;20048;-74
2023/04/01 11:39:05;;;;;;;5.57;2.33;;;12.50;99.90;;;;;;5101983;27;20047;-73
2023/04/01 11:42:15;;;;;;;7.57;1.90;;;12.50;99.90;;;;;;5103499;27;20062;-73
2023/04/01 11:45:01;;;;;;;5.38;1.88;;;12.40;99.90;;;;;;5083483;27;20049;-73
2023/04/01 11:47:57;;;;;;;5.83;1.90;;;12.30;99.90;;;;;;5101418;27;20561;-74
2023/04/01 11:50:42;;;;;;;5.60;1.70;;;12.20;99.90;;;;;;5104824;27;20039;-73
2023/04/01 11:53:19;;;;;;;4.57;1.55;;;12.10;99.90;;;;;;5119961;27;20096;-75
2023/04/01 11:56:07;;;;;;;5.57;1.58;;;11.90;99.90;;;;;;5107653;27;20042;-72
2023/04/01 11:58:56;;;;;;;5.68;1.80;;;11.90;99.90;;;;;;5104549;27;20524;-73
2023/04/01 12:02:10;;;;;;;4.70;1.65;;;11.90;99.90;;;;;;5104186;27;20514;-74
2023/04/01 12:05:00;;;;;;;4.65;1.75;;;11.80;99.90;;;;;;5007068;27;20419;-74
2023/04/01 12:07:45;;;;;;;4.35;1.70;;;11.70;99.90;;;;;;5101793;27;20050;-73
2023/04/01 12:10:39;;;;;;;5.35;1.73;;;11.70;99.90;;;;;;5121653;27;20392;-73
2023/04/01 12:13:45;;;;;;;5.95;1.70;;;11.60;99.90;;;;;;5122672;27;20051;-73
2023/04/01 12:16:29;;;;;;;3.03;1.67;;;11.60;99.90;;;;;;5081669;28;20186;-73
2023/04/01 12:19:15;;;;;;;4.40;1.38;;;11.50;99.90;;;;;;5100652;27;20054;-73
2023/04/01 12:22:19;;;;;;;3.45;1.60;;;11.50;99.90;;;;;;5118572;27;20522;-72
2023/04/01 12:24:55;;;;;;;5.15;1.95;;;11.60;99.90;;;;;;5102736;27;20034;-71
2023/04/01 12:27:32;;;;;;;4.60;1.70;;;11.60;99.90;;;;;;5138448;27;20047;-72
2023/04/01 12:30:26;;;;;;;6.13;1.90;;;11.60;99.90;;;;;;5137981;27;20552;-74
2023/04/01 12:33:28;;;;;;;5.95;2.30;;;11.50;99.90;;;;;;5124815;27;20079;-74
2023/04/01 12:36:19;;;;;;;6.85;2.00;;;11.60;99.90;;;;;;5119091;27;20481;-72
2023/04/01 12:39:13;;;;;;;5.28;1.92;;;11.60;99.90;;;;;;5104698;27;20111;-73
2023/04/01 12:42:12;;;;;;;3.67;1.60;;;11.60;99.90;;;;;;5102264;27;20326;-73
2023/04/01 12:44:58;;;;;;;4.72;1.60;;;11.50;99.90;;;;;;5101184;27;20046;-73
2023/04/01 12:47:27;;;;;;;5.55;1.50;;;11.50;99.90;;;;;;5102352;27;20133;-73
2023/04/01 12:50:24;;;;;;;2.80;1.90;;;11.40;99.90;;;;;;5129643;27;20055;-73
2023/04/01 12:53:19;;;;;;;5.05;1.80;;;11.40;99.90;;;;;;5100274;27;20241;-74
2023/04/01 12:55:50;;;;;;;3.65;1.67;;;11.40;99.90;;;;;;5099522;27;20043;-73
2023/04/01 12:58:43;;;;;;;4.13;1.60;;;11.40;99.90;;;;;;5084167;27;20058;-72
2023/04/01 13:01:30;;;;;;;3.58;1.58;;;11.30;99.90;;;;;;5097057;27;20214;-73
2023/04/01 13:04:17;;;;;;;4.20;1.67;;;11.20;99.90;;;;;;5121933;27;20052;-74
2023/04/01 13:07:11;;;;;;;6.00;1.70;;;11.10;99.90;;;;;;5119394;27;20043;-73
2023/04/01 13:09:52;;;;;;;3.50;1.65;;;11.00;99.90;;;;;;5098564;27;20051;-71
2023/04/01 13:12:40;;;;;;;5.70;1.70;;;10.90;99.90;;;;;;5102868;27;20043;-75
2023/04/01 13:15:25;;;;;;;6.57;1.60;;;10.90;99.90;;;;;;5116996;27;20044;-75
2023/04/01 13:18:16;;;;;;;3.33;1.80;;;10.90;99.90;;;;;;5103931;27;20043;-73
2023/04/01 13:20:52;;;;;;;3.85;1.80;;;10.90;99.90;;;;;;5099739;27;20043;-72
2023/04/01 13:23:42;;;;;;;2.97;1.40;;;10.80;99.90;;;;;;5110650;27;20040;-72
2023/04/01 13:26:37;;;;;;;5.30;1.65;;;10.80;99.90;;;;;;5101490;27;20058;-73
2023/04/01 13:29:06;;;;;;;4.05;1.60;;;10.70;99.90;;;;;;5131621;27;20555;-73
2023/04/01 13:31:50;;;;;;;4.05;1.85;;;10.70;99.90;;;;;;5134041;27;20038;-72
2023/04/01 13:34:35;;;;;;;4.03;1.70;;;10.60;99.90;;;;;;5082439;27;20111;-73
2023/04/01 13:37:34;;;;;;;5.22;1.77;;;10.60;99.90;;;;;;5121411;27;20121;-75
2023/04/01 13:40:05;;;;;;;6.65;1.92;;;10.60;99.90;;;;;;5117495;27;20261;-71
2023/04/01 13:42:57;;;;;;;3.40;1.77;;;10.60;99.90;;;;;;5104160;27;20507;-71
2023/04/01 13:45:50;;;;;;;4.32;1.80;;;10.60;99.90;;;;;;5076581;27;20067;-70
2023/04/01 13:48:19;;;;;;;2.97;1.67;;;10.60;99.90;;;;;;5071364;27;20078;-71
2023/04/01 13:51:15;;;;;;;6.15;2.10;;;10.60;99.90;;;;;;5100163;27;20044;-70